sensor_id;sensor_type;location;lat;lon;timestamp;P1;durP1;ratioP1;P2;durP2;ratioP2
4819;SDS011;2424;49.696;6.630;2023-06-14T00:04:44;2.77;;;2.60;;
4819;SDS011;2424;49.696;6.630;2023-06-14T00:10:10;2.93;;;2.67;;
4819;SDS011;2424;49.696;6.630;2023-06-14T00:15:32;3.27;;;3.07;;
4819;SDS011;2424;49.696;6.630;2023-06-14T00:20:55;2.70;;;2.60;;
4819;SDS011;2424;49.696;6.630;2023-06-14T00:26:18;2.90;;;2.70;;
4819;SDS011;2424;49.696;6.630;2023-06-14T00:31:40;2.67;;;2.47;;
4819;SDS011;2424;49.696;6.630;2023-06-14T00:37:02;2.60;;;2.40;;
4819;SDS011;2424;49.696;6.630;2023-06-14T00:42:26;2.90;;;2.70;;
4819;SDS011;2424;49.696;6.630;2023-06-14T00:47:48;3.30;;;2.70;;
4819;SDS011;2424;49.696;6.630;2023-06-14T00:53:12;2.30;;;2.20;;
4819;SDS011;2424;49.696;6.630;2023-06-14T00:58:36;2.60;;;2.50;;
4819;SDS011;2424;49.696;6.630;2023-06-14T01:03:58;3.00;;;2.80;;
4819;SDS011;2424;49.696;6.630;2023-06-14T01:09:23;2.37;;;2.27;;
4819;SDS011;2424;49.696;6.630;2023-06-14T01:14:51;2.57;;;2.37;;
4819;SDS011;2424;49.696;6.630;2023-06-14T01:20:16;3.33;;;2.73;;
4819;SDS011;2424;49.696;6.630;2023-06-14T01:25:41;2.90;;;2.70;;
4819;SDS011;2424;49.696;6.630;2023-06-14T01:31:04;4.63;;;3.03;;
4819;SDS011;2424;49.696;6.630;2023-06-14T01:36:28;2.80;;;2.70;;
4819;SDS011;2424;49.696;6.630;2023-06-14T01:41:51;2.97;;;2.77;;
4819;SDS011;2424;49.696;6.630;2023-06-14T01:47:14;2.60;;;2.50;;
4819;SDS011;2424;49.696;6.630;2023-06-14T01:52:36;2.97;;;2.77;;
4819;SDS011;2424;49.696;6.630;2023-06-14T01:58:00;2.77;;;2.60;;
4819;SDS011;2424;49.696;6.630;2023-06-14T02:03:22;2.90;;;2.80;;
4819;SDS011;2424;49.696;6.630;2023-06-14T02:08:45;3.07;;;2.90;;
4819;SDS011;2424;49.696;6.630;2023-06-14T02:14:08;3.27;;;3.00;;
4819;SDS011;2424;49.696;6.630;2023-06-14T02:19:31;3.30;;;3.10;;
4819;SDS011;2424;49.696;6.630;2023-06-14T02:24:53;4.40;;;2.97;;
4819;SDS011;2424;49.696;6.630;2023-06-14T02:30:17;2.87;;;2.67;;
4819;SDS011;2424;49.696;6.630;2023-06-14T02:35:39;2.40;;;2.30;;
4819;SDS011;2424;49.696;6.630;2023-06-14T02:41:02;3.00;;;2.80;;
4819;SDS011;2424;49.696;6.630;2023-06-14T02:46:27;3.80;;;2.83;;
4819;SDS011;2424;49.696;6.630;2023-06-14T02:51:49;2.90;;;2.70;;
4819;SDS011;2424;49.696;6.630;2023-06-14T02:57:11;3.13;;;2.73;;
4819;SDS011;2424;49.696;6.630;2023-06-14T03:02:34;3.43;;;3.13;;
4819;SDS011;2424;49.696;6.630;2023-06-14T03:07:56;2.93;;;2.80;;
4819;SDS011;2424;49.696;6.630;2023-06-14T03:13:18;2.73;;;2.53;;
4819;SDS011;2424;49.696;6.630;2023-06-14T03:18:42;3.20;;;3.00;;
4819;SDS011;2424;49.696;6.630;2023-06-14T03:24:04;4.40;;;3.07;;
4819;SDS011;2424;49.696;6.630;2023-06-14T03:29:27;2.63;;;2.53;;
4819;SDS011;2424;49.696;6.630;2023-06-14T03:34:50;3.17;;;2.90;;
4819;SDS011;2424;49.696;6.630;2023-06-14T03:40:13;3.00;;;2.80;;
4819;SDS011;2424;49.696;6.630;2023-06-14T03:45:36;2.70;;;2.60;;
4819;SDS011;2424;49.696;6.630;2023-06-14T03:50:59;2.43;;;2.30;;
4819;SDS011;2424;49.696;6.630;2023-06-14T03:56:22;3.13;;;2.97;;
4819;SDS011;2424;49.696;6.630;2023-06-14T04:01:44;3.00;;;2.80;;
4819;SDS011;2424;49.696;6.630;2023-06-14T04:07:08;2.70;;;2.60;;
4819;SDS011;2424;49.696;6.630;2023-06-14T04:12:30;3.17;;;2.97;;
4819;SDS011;2424;49.696;6.630;2023-06-14T04:17:52;2.77;;;2.57;;
4819;SDS011;2424;49.696;6.630;2023-06-14T04:23:18;3.23;;;2.93;;
4819;SDS011;2424;49.696;6.630;2023-06-14T04:28:41;2.80;;;2.60;;
4819;SDS011;2424;49.696;6.630;2023-06-14T04:34:05;3.23;;;2.93;;
4819;SDS011;2424;49.696;6.630;2023-06-14T04:39:28;2.90;;;2.80;;
4819;SDS011;2424;49.696;6.630;2023-06-14T04:44:51;2.93;;;2.73;;
4819;SDS011;2424;49.696;6.630;2023-06-14T04:50:16;3.23;;;3.03;;
4819;SDS011;2424;49.696;6.630;2023-06-14T04:55:42;2.73;;;2.63;;
4819;SDS011;2424;49.696;6.630;2023-06-14T05:01:05;3.00;;;2.80;;
4819;SDS011;2424;49.696;6.630;2023-06-14T05:06:29;3.80;;;3.47;;
4819;SDS011;2424;49.696;6.630;2023-06-14T05:11:53;2.80;;;2.50;;
4819;SDS011;2424;49.696;6.630;2023-06-14T05:17:16;7.10;;;3.30;;
4819;SDS011;2424;49.696;6.630;2023-06-14T05:22:38;3.40;;;3.10;;
4819;SDS011;2424;49.696;6.630;2023-06-14T05:28:01;3.13;;;2.70;;
4819;SDS011;2424;49.696;6.630;2023-06-14T05:33:23;2.40;;;2.30;;
4819;SDS011;2424;49.696;6.630;2023-06-14T05:38:45;3.27;;;3.07;;
4819;SDS011;2424;49.696;6.630;2023-06-14T05:44:08;2.90;;;2.70;;
4819;SDS011;2424;49.696;6.630;2023-06-14T05:49:30;2.73;;;2.53;;
4819;SDS011;2424;49.696;6.630;2023-06-14T05:54:52;3.20;;;2.90;;
4819;SDS011;2424;49.696;6.630;2023-06-14T06:00:16;3.00;;;2.90;;
4819;SDS011;2424;49.696;6.630;2023-06-14T06:05:39;2.83;;;2.73;;
4819;SDS011;2424;49.696;6.630;2023-06-14T06:11:02;3.90;;;3.33;;
4819;SDS011;2424;49.696;6.630;2023-06-14T06:16:25;3.40;;;2.80;;
4819;SDS011;2424;49.696;6.630;2023-06-14T06:21:47;3.10;;;2.87;;
4819;SDS011;2424;49.696;6.630;2023-06-14T06:27:09;3.10;;;2.90;;
4819;SDS011;2424;49.696;6.630;2023-06-14T06:32:34;2.00;;;1.90;;
4819;SDS011;2424;49.696;6.630;2023-06-14T06:37:55;1.20;;;1.10;;
4819;SDS011;2424;49.696;6.630;2023-06-14T06:43:17;1.43;;;0.97;;
4819;SDS011;2424;49.696;6.630;2023-06-14T06:48:41;3.93;;;2.80;;
4819;SDS011;2424;49.696;6.630;2023-06-14T06:54:03;3.33;;;1.63;;
4819;SDS011;2424;49.696;6.630;2023-06-14T06:59:26;2.60;;;2.43;;
4819;SDS011;2424;49.696;6.630;2023-06-14T07:04:49;2.83;;;2.63;;
4819;SDS011;2424;49.696;6.630;2023-06-14T07:10:12;2.30;;;1.80;;
4819;SDS011;2424;49.696;6.630;2023-06-14T07:15:33;1.00;;;0.90;;
4819;SDS011;2424;49.696;6.630;2023-06-14T07:20:57;2.20;;;2.00;;
4819;SDS011;2424;49.696;6.630;2023-06-14T07:26:19;3.00;;;2.70;;
4819;SDS011;2424;49.696;6.630;2023-06-14T07:31:41;2.27;;;2.17;;
4819;SDS011;2424;49.696;6.630;2023-06-14T07:37:05;0.50;;;0.40;;
4819;SDS011;2424;49.696;6.630;2023-06-14T07:42:27;4.10;;;2.43;;
4819;SDS011;2424;49.696;6.630;2023-06-14T07:47:49;3.00;;;2.80;;
4819;SDS011;2424;49.696;6.630;2023-06-14T07:53:13;2.50;;;2.30;;
4819;SDS011;2424;49.696;6.630;2023-06-14T07:58:35;2.70;;;2.50;;
4819;SDS011;2424;49.696;6.630;2023-06-14T08:03:57;1.40;;;1.30;;
4819;SDS011;2424;49.696;6.630;2023-06-14T08:09:20;2.97;;;2.83;;
4819;SDS011;2424;49.696;6.630;2023-06-14T08:14:43;2.43;;;2.33;;
4819;SDS011;2424;49.696;6.630;2023-06-14T08:20:05;4.20;;;2.97;;
4819;SDS011;2424;49.696;6.630;2023-06-14T08:25:30;3.73;;;3.53;;
4819;SDS011;2424;49.696;6.630;2023-06-14T08:30:52;3.20;;;3.03;;
4819;SDS011;2424;49.696;6.630;2023-06-14T08:36:14;3.13;;;2.37;;
4819;SDS011;2424;49.696;6.630;2023-06-14T08:41:37;3.00;;;2.70;;
4819;SDS011;2424;49.696;6.630;2023-06-14T08:46:59;3.63;;;3.30;;
4819;SDS011;2424;49.696;6.630;2023-06-14T08:52:23;3.47;;;3.17;;
4819;SDS011;2424;49.696;6.630;2023-06-14T08:57:51;2.50;;;2.30;;
4819;SDS011;2424;49.696;6.630;2023-06-14T09:03:15;2.60;;;2.40;;
4819;SDS011;2424;49.696;6.630;2023-06-14T09:08:37;4.00;;;2.67;;
4819;SDS011;2424;49.696;6.630;2023-06-14T09:14:03;2.70;;;2.50;;
4819;SDS011;2424;49.696;6.630;2023-06-14T09:19:25;2.87;;;2.67;;
4819;SDS011;2424;49.696;6.630;2023-06-14T09:24:47;3.10;;;2.90;;
4819;SDS011;2424;49.696;6.630;2023-06-14T09:30:11;2.17;;;2.07;;
4819;SDS011;2424;49.696;6.630;2023-06-14T09:35:33;3.03;;;2.83;;
4819;SDS011;2424;49.696;6.630;2023-06-14T09:40:56;6.40;;;2.70;;
4819;SDS011;2424;49.696;6.630;2023-06-14T09:46:20;3.00;;;2.70;;
4819;SDS011;2424;49.696;6.630;2023-06-14T09:51:42;3.63;;;2.47;;
4819;SDS011;2424;49.696;6.630;2023-06-14T09:57:06;2.40;;;2.30;;
4819;SDS011;2424;49.696;6.630;2023-06-14T10:02:31;2.23;;;2.13;;
4819;SDS011;2424;49.696;6.630;2023-06-14T10:07:59;2.23;;;2.03;;
4819;SDS011;2424;49.696;6.630;2023-06-14T10:13:25;2.97;;;2.77;;
4819;SDS011;2424;49.696;6.630;2023-06-14T10:18:51;2.43;;;2.23;;
4819;SDS011;2424;49.696;6.630;2023-06-14T10:24:26;4.50;;;2.57;;
4819;SDS011;2424;49.696;6.630;2023-06-14T10:30:03;6.33;;;2.90;;
4819;SDS011;2424;49.696;6.630;2023-06-14T10:35:29;2.63;;;2.43;;
4819;SDS011;2424;49.696;6.630;2023-06-14T10:40:52;1.27;;;1.17;;
4819;SDS011;2424;49.696;6.630;2023-06-14T10:46:17;2.20;;;2.00;;
4819;SDS011;2424;49.696;6.630;2023-06-14T10:51:44;2.37;;;2.27;;
4819;SDS011;2424;49.696;6.630;2023-06-14T10:57:11;1.60;;;1.50;;
4819;SDS011;2424;49.696;6.630;2023-06-14T11:02:48;2.67;;;2.47;;
4819;SDS011;2424;49.696;6.630;2023-06-14T11:14:24;1.87;;;1.87;;
4819;SDS011;2424;49.696;6.630;2023-06-14T11:19:46;2.60;;;2.40;;
4819;SDS011;2424;49.696;6.630;2023-06-14T11:25:08;0.33;;;0.23;;
4819;SDS011;2424;49.696;6.630;2023-06-14T11:30:32;2.40;;;2.30;;
4819;SDS011;2424;49.696;6.630;2023-06-14T11:35:53;2.80;;;2.60;;
4819;SDS011;2424;49.696;6.630;2023-06-14T11:41:15;2.67;;;2.47;;
4819;SDS011;2424;49.696;6.630;2023-06-14T11:46:39;2.03;;;1.93;;
4819;SDS011;2424;49.696;6.630;2023-06-14T11:52:01;0.80;;;0.80;;
4819;SDS011;2424;49.696;6.630;2023-06-14T11:57:24;2.17;;;2.07;;
4819;SDS011;2424;49.696;6.630;2023-06-14T12:02:54;1.90;;;1.80;;
4819;SDS011;2424;49.696;6.630;2023-06-14T12:08:17;2.10;;;1.97;;
4819;SDS011;2424;49.696;6.630;2023-06-14T12:13:39;1.93;;;1.70;;
4819;SDS011;2424;49.696;6.630;2023-06-14T12:19:08;1.70;;;1.60;;
4819;SDS011;2424;49.696;6.630;2023-06-14T12:24:33;2.00;;;1.90;;
4819;SDS011;2424;49.696;6.630;2023-06-14T12:29:58;1.73;;;1.63;;
4819;SDS011;2424;49.696;6.630;2023-06-14T12:35:22;2.00;;;1.90;;
4819;SDS011;2424;49.696;6.630;2023-06-14T12:40:44;1.90;;;1.80;;
4819;SDS011;2424;49.696;6.630;2023-06-14T12:46:07;1.07;;;1.03;;
4819;SDS011;2424;49.696;6.630;2023-06-14T12:51:30;2.10;;;2.00;;
4819;SDS011;2424;49.696;6.630;2023-06-14T12:56:52;1.50;;;1.40;;
4819;SDS011;2424;49.696;6.630;2023-06-14T13:02:15;1.67;;;1.57;;
4819;SDS011;2424;49.696;6.630;2023-06-14T13:07:39;1.70;;;1.60;;
4819;SDS011;2424;49.696;6.630;2023-06-14T13:13:01;1.30;;;1.20;;
4819;SDS011;2424;49.696;6.630;2023-06-14T13:18:24;1.83;;;1.73;;
4819;SDS011;2424;49.696;6.630;2023-06-14T13:23:47;1.00;;;1.00;;
4819;SDS011;2424;49.696;6.630;2023-06-14T13:29:09;1.60;;;1.50;;
4819;SDS011;2424;49.696;6.630;2023-06-14T13:34:31;1.60;;;1.50;;
4819;SDS011;2424;49.696;6.630;2023-06-14T13:39:54;1.50;;;1.40;;
4819;SDS011;2424;49.696;6.630;2023-06-14T13:45:16;1.10;;;1.10;;
4819;SDS011;2424;49.696;6.630;2023-06-14T13:50:38;1.37;;;1.33;;
4819;SDS011;2424;49.696;6.630;2023-06-14T13:56:02;1.40;;;1.40;;
4819;SDS011;2424;49.696;6.630;2023-06-14T14:01:24;1.27;;;1.27;;
4819;SDS011;2424;49.696;6.630;2023-06-14T14:06:46;0.80;;;0.80;;
4819;SDS011;2424;49.696;6.630;2023-06-14T14:12:10;2.03;;;1.53;;
4819;SDS011;2424;49.696;6.630;2023-06-14T14:17:32;1.13;;;1.13;;
4819;SDS011;2424;49.696;6.630;2023-06-14T14:22:54;2.03;;;1.40;;
4819;SDS011;2424;49.696;6.630;2023-06-14T14:28:17;1.33;;;1.23;;
4819;SDS011;2424;49.696;6.630;2023-06-14T14:33:40;1.87;;;1.60;;
4819;SDS011;2424;49.696;6.630;2023-06-14T14:39:02;1.60;;;1.50;;
4819;SDS011;2424;49.696;6.630;2023-06-14T14:44:26;0.80;;;0.80;;
4819;SDS011;2424;49.696;6.630;2023-06-14T14:49:48;1.27;;;1.20;;
4819;SDS011;2424;49.696;6.630;2023-06-14T14:55:10;4.77;;;1.60;;
4819;SDS011;2424;49.696;6.630;2023-06-14T15:00:33;1.03;;;1.03;;
4819;SDS011;2424;49.696;6.630;2023-06-14T15:05:55;1.77;;;1.67;;
4819;SDS011;2424;49.696;6.630;2023-06-14T15:11:17;1.47;;;1.47;;
4819;SDS011;2424;49.696;6.630;2023-06-14T15:16:41;1.33;;;1.07;;
4819;SDS011;2424;49.696;6.630;2023-06-14T15:22:03;1.23;;;1.23;;
4819;SDS011;2424;49.696;6.630;2023-06-14T15:27:25;1.10;;;1.00;;
4819;SDS011;2424;49.696;6.630;2023-06-14T15:32:49;1.23;;;1.23;;
4819;SDS011;2424;49.696;6.630;2023-06-14T15:38:11;1.53;;;1.07;;
4819;SDS011;2424;49.696;6.630;2023-06-14T15:43:33;1.40;;;1.30;;
4819;SDS011;2424;49.696;6.630;2023-06-14T15:48:56;1.17;;;1.17;;
4819;SDS011;2424;49.696;6.630;2023-06-14T15:54:18;1.33;;;1.23;;
4819;SDS011;2424;49.696;6.630;2023-06-14T15:59:40;1.23;;;1.23;;
4819;SDS011;2424;49.696;6.630;2023-06-14T16:05:03;1.30;;;1.30;;
4819;SDS011;2424;49.696;6.630;2023-06-14T16:10:26;1.33;;;1.17;;
4819;SDS011;2424;49.696;6.630;2023-06-14T16:15:48;1.13;;;1.13;;
4819;SDS011;2424;49.696;6.630;2023-06-14T16:21:11;0.70;;;0.70;;
4819;SDS011;2424;49.696;6.630;2023-06-14T16:26:33;1.30;;;1.23;;
4819;SDS011;2424;49.696;6.630;2023-06-14T16:31:56;1.67;;;1.23;;
4819;SDS011;2424;49.696;6.630;2023-06-14T16:37:19;0.93;;;0.93;;
4819;SDS011;2424;49.696;6.630;2023-06-14T16:42:42;1.90;;;1.43;;
4819;SDS011;2424;49.696;6.630;2023-06-14T16:48:04;1.10;;;1.10;;
4819;SDS011;2424;49.696;6.630;2023-06-14T16:53:28;1.00;;;1.00;;
4819;SDS011;2424;49.696;6.630;2023-06-14T16:58:49;1.47;;;0.90;;
4819;SDS011;2424;49.696;6.630;2023-06-14T17:04:11;1.00;;;1.00;;
4819;SDS011;2424;49.696;6.630;2023-06-14T17:09:35;2.10;;;1.10;;
4819;SDS011;2424;49.696;6.630;2023-06-14T17:14:57;0.90;;;0.90;;
4819;SDS011;2424;49.696;6.630;2023-06-14T17:20:19;2.20;;;1.17;;
4819;SDS011;2424;49.696;6.630;2023-06-14T17:25:43;1.57;;;1.10;;
4819;SDS011;2424;49.696;6.630;2023-06-14T17:31:05;1.97;;;1.40;;
4819;SDS011;2424;49.696;6.630;2023-06-14T17:36:28;1.00;;;1.00;;
4819;SDS011;2424;49.696;6.630;2023-06-14T17:41:51;1.67;;;1.50;;
4819;SDS011;2424;49.696;6.630;2023-06-14T17:47:13;1.30;;;1.30;;
4819;SDS011;2424;49.696;6.630;2023-06-14T17:52:35;1.50;;;1.50;;
4819;SDS011;2424;49.696;6.630;2023-06-14T17:57:58;1.40;;;1.40;;
4819;SDS011;2424;49.696;6.630;2023-06-14T18:03:21;1.20;;;1.20;;
4819;SDS011;2424;49.696;6.630;2023-06-14T18:08:43;1.37;;;1.37;;
4819;SDS011;2424;49.696;6.630;2023-06-14T18:14:08;1.33;;;1.23;;
4819;SDS011;2424;49.696;6.630;2023-06-14T18:19:30;1.83;;;1.73;;
4819;SDS011;2424;49.696;6.630;2023-06-14T18:24:52;1.37;;;1.30;;
4819;SDS011;2424;49.696;6.630;2023-06-14T18:30:16;3.33;;;1.50;;
4819;SDS011;2424;49.696;6.630;2023-06-14T18:35:38;1.53;;;1.53;;
4819;SDS011;2424;49.696;6.630;2023-06-14T18:41:00;1.57;;;1.47;;
4819;SDS011;2424;49.696;6.630;2023-06-14T18:46:23;1.60;;;1.50;;
4819;SDS011;2424;49.696;6.630;2023-06-14T18:51:46;1.10;;;1.10;;
4819;SDS011;2424;49.696;6.630;2023-06-14T18:57:08;1.33;;;1.33;;
4819;SDS011;2424;49.696;6.630;2023-06-14T19:02:33;1.50;;;1.40;;
4819;SDS011;2424;49.696;6.630;2023-06-14T19:07:55;1.70;;;1.30;;
4819;SDS011;2424;49.696;6.630;2023-06-14T19:13:17;1.97;;;1.73;;
4819;SDS011;2424;49.696;6.630;2023-06-14T19:18:40;5.90;;;1.53;;
4819;SDS011;2424;49.696;6.630;2023-06-14T19:24:03;1.50;;;1.50;;
4819;SDS011;2424;49.696;6.630;2023-06-14T19:29:25;2.07;;;2.03;;
4819;SDS011;2424;49.696;6.630;2023-06-14T19:34:51;1.00;;;1.00;;
4819;SDS011;2424;49.696;6.630;2023-06-14T19:40:13;1.80;;;1.70;;
4819;SDS011;2424;49.696;6.630;2023-06-14T19:45:36;1.20;;;1.20;;
4819;SDS011;2424;49.696;6.630;2023-06-14T19:50:59;1.67;;;1.60;;
4819;SDS011;2424;49.696;6.630;2023-06-14T19:56:21;1.50;;;1.50;;
4819;SDS011;2424;49.696;6.630;2023-06-14T20:01:43;1.33;;;1.23;;
4819;SDS011;2424;49.696;6.630;2023-06-14T20:07:07;1.07;;;1.07;;
4819;SDS011;2424;49.696;6.630;2023-06-14T20:12:29;1.67;;;1.57;;
4819;SDS011;2424;49.696;6.630;2023-06-14T20:17:51;1.87;;;1.77;;
4819;SDS011;2424;49.696;6.630;2023-06-14T20:23:15;1.43;;;1.43;;
4819;SDS011;2424;49.696;6.630;2023-06-14T20:28:37;1.10;;;1.10;;
4819;SDS011;2424;49.696;6.630;2023-06-14T20:33:59;1.70;;;1.60;;
4819;SDS011;2424;49.696;6.630;2023-06-14T20:39:22;1.60;;;1.60;;
4819;SDS011;2424;49.696;6.630;2023-06-14T20:44:45;1.70;;;1.60;;
4819;SDS011;2424;49.696;6.630;2023-06-14T20:50:07;2.00;;;1.50;;
4819;SDS011;2424;49.696;6.630;2023-06-14T20:55:32;1.50;;;1.50;;
4819;SDS011;2424;49.696;6.630;2023-06-14T21:00:54;3.07;;;1.77;;
4819;SDS011;2424;49.696;6.630;2023-06-14T21:06:17;1.93;;;1.50;;
4819;SDS011;2424;49.696;6.630;2023-06-14T21:11:40;1.70;;;1.60;;
4819;SDS011;2424;49.696;6.630;2023-06-14T21:17:04;1.80;;;1.77;;
4819;SDS011;2424;49.696;6.630;2023-06-14T21:22:28;1.43;;;1.43;;
4819;SDS011;2424;49.696;6.630;2023-06-14T21:27:52;1.73;;;1.73;;
4819;SDS011;2424;49.696;6.630;2023-06-14T21:33:14;2.03;;;1.50;;
4819;SDS011;2424;49.696;6.630;2023-06-14T21:38:38;1.40;;;1.40;;
4819;SDS011;2424;49.696;6.630;2023-06-14T21:44:02;1.77;;;1.67;;
4819;SDS011;2424;49.696;6.630;2023-06-14T21:49:25;1.40;;;1.40;;
4819;SDS011;2424;49.696;6.630;2023-06-14T21:54:53;1.50;;;1.50;;
4819;SDS011;2424;49.696;6.630;2023-06-14T22:05:44;1.80;;;1.70;;
4819;SDS011;2424;49.696;6.630;2023-06-14T22:11:06;1.03;;;1.03;;
4819;SDS011;2424;49.696;6.630;2023-06-14T22:16:31;1.50;;;1.50;;
4819;SDS011;2424;49.696;6.630;2023-06-14T22:21:55;1.33;;;1.30;;
4819;SDS011;2424;49.696;6.630;2023-06-14T22:27:20;1.67;;;1.60;;
4819;SDS011;2424;49.696;6.630;2023-06-14T22:32:47;1.40;;;1.40;;
4819;SDS011;2424;49.696;6.630;2023-06-14T22:38:10;2.17;;;2.03;;
4819;SDS011;2424;49.696;6.630;2023-06-14T22:43:32;1.70;;;1.50;;
4819;SDS011;2424;49.696;6.630;2023-06-14T22:48:59;1.80;;;1.70;;
4819;SDS011;2424;49.696;6.630;2023-06-14T22:54:21;1.40;;;1.40;;
4819;SDS011;2424;49.696;6.630;2023-06-14T22:59:43;1.67;;;1.57;;
4819;SDS011;2424;49.696;6.630;2023-06-14T23:05:07;1.50;;;1.50;;
4819;SDS011;2424;49.696;6.630;2023-06-14T23:10:31;1.83;;;1.73;;
4819;SDS011;2424;49.696;6.630;2023-06-14T23:15:57;1.70;;;1.60;;
4819;SDS011;2424;49.696;6.630;2023-06-14T23:21:20;2.13;;;1.80;;
4819;SDS011;2424;49.696;6.630;2023-06-14T23:26:42;2.30;;;2.20;;
4819;SDS011;2424;49.696;6.630;2023-06-14T23:32:06;1.77;;;1.67;;
4819;SDS011;2424;49.696;6.630;2023-06-14T23:37:30;1.87;;;1.83;;
4819;SDS011;2424;49.696;6.630;2023-06-14T23:42:52;1.63;;;1.63;;
4819;SDS011;2424;49.696;6.630;2023-06-14T23:48:14;1.50;;;1.50;;
4819;SDS011;2424;49.696;6.630;2023-06-14T23:53:37;1.30;;;1.30;;
4819;SDS011;2424;49.696;6.630;2023-06-14T23:59:00;2.40;;;2.07;;
